createdAt,value
2022-12-01T00:01:21.800Z,85.38
2022-12-01T00:03:50.269Z,86.10
2022-12-01T00:06:19.148Z,86.53
2022-12-01T00:09:06.510Z,103.50
2022-12-01T00:11:34.835Z,96.90
2022-12-01T00:14:03.941Z,120.93
2022-12-01T00:16:33.722Z,103.50
2022-12-01T00:19:03.331Z,100.85
2022-12-01T00:21:30.858Z,102.20
2022-12-01T00:23:58.975Z,93.80
2022-12-01T00:26:27.640Z,107.82
2022-12-01T00:28:56.885Z,96.95
2022-12-01T00:31:25.943Z,94.03
2022-12-01T00:33:53.592Z,99.85
2022-12-01T00:36:22.461Z,98.75
2022-12-01T00:38:54.068Z,98.28
2022-12-01T00:41:22.100Z,99.47
2022-12-01T00:43:50.828Z,94.50
2022-12-01T00:46:18.823Z,95.43
2022-12-01T00:48:47.632Z,100.28
2022-12-01T00:51:15.182Z,107.10
2022-12-01T00:53:43.056Z,83.28
2022-12-01T00:56:10.666Z,88.05
2022-12-01T00:58:38.331Z,86.45
2022-12-01T01:03:34.942Z,92.47
2022-12-01T01:06:09.983Z,84.50
2022-12-01T01:08:38.397Z,85.20
2022-12-01T01:11:07.139Z,82.20
2022-12-01T01:13:35.248Z,80.07
2022-12-01T01:16:04.886Z,81.70
2022-12-01T01:18:33.529Z,86.50
2022-12-01T01:21:08.958Z,82.88
2022-12-01T01:23:39.151Z,81.05
2022-12-01T01:26:08.435Z,88.25
2022-12-01T01:28:41.741Z,82.65
2022-12-01T01:31:10.934Z,90.10
2022-12-01T01:33:38.431Z,81.82
2022-12-01T01:36:06.656Z,84.60
2022-12-01T01:38:34.943Z,86.47
2022-12-01T01:41:04.151Z,95.63
2022-12-01T01:43:42.728Z,85.53
2022-12-01T01:46:18.197Z,92.53
2022-12-01T01:48:53.471Z,89.13
2022-12-01T01:51:36.677Z,87.60
2022-12-01T01:54:09.836Z,86.80
2022-12-01T01:56:37.904Z,81.38
2022-12-01T01:59:05.619Z,94.30
2022-12-01T02:01:34.605Z,88.85
2022-12-01T02:04:05.155Z,81.63
2022-12-01T02:06:33.263Z,89.43
2022-12-01T02:09:02.341Z,83.13
2022-12-01T02:11:59.574Z,88.93
2022-12-01T02:14:52.062Z,94.00
2022-12-01T02:17:41.358Z,81.68
2022-12-01T02:20:09.399Z,80.43
2022-12-01T02:22:53.915Z,84.35
2022-12-01T02:25:40.476Z,83.18
2022-12-01T02:28:26.641Z,80.50
2022-12-01T02:30:59.621Z,77.90
2022-12-01T02:33:34.009Z,81.07
2022-12-01T02:36:04.907Z,79.88
2022-12-01T02:38:56.292Z,81.00
2022-12-01T02:41:33.338Z,79.55
2022-12-01T02:44:06.674Z,76.78
2022-12-01T02:46:43.023Z,74.43
2022-12-01T02:49:27.150Z,77.32
2022-12-01T02:51:55.534Z,77.45
2022-12-01T02:54:23.618Z,81.47
2022-12-01T02:56:54.242Z,80.25
2022-12-01T03:02:08.093Z,77.65
2022-12-01T03:04:41.364Z,74.32
2022-12-01T03:07:13.862Z,74.15
2022-12-01T03:09:59.664Z,83.75
2022-12-01T03:12:34.593Z,79.15
2022-12-01T03:15:14.122Z,78.15
2022-12-01T03:17:46.300Z,73.68
2022-12-01T03:20:17.397Z,78.55
2022-12-01T03:22:48.135Z,79.65
2022-12-01T03:25:16.678Z,73.60
2022-12-01T03:28:13.611Z,78.03
2022-12-01T03:30:37.506Z,76.75
2022-12-01T03:33:09.985Z,82.78
2022-12-01T03:35:42.998Z,76.10
2022-12-01T03:38:15.016Z,79.72
2022-12-01T03:40:43.178Z,77.82
2022-12-01T03:43:12.679Z,76.72
2022-12-01T03:46:04.925Z,71.77
2022-12-01T03:48:33.096Z,82.65
2022-12-01T03:51:01.027Z,76.53
2022-12-01T03:53:35.206Z,85.40
2022-12-01T03:56:07.236Z,77.88
2022-12-01T03:58:39.767Z,80.63
2022-12-01T04:01:09.226Z,76.30
2022-12-01T04:03:37.529Z,71.78
2022-12-01T04:06:05.729Z,73.40
2022-12-01T04:08:37.973Z,65.38
2022-12-01T04:11:31.004Z,67.65
2022-12-01T04:14:00.140Z,77.15
2022-12-01T04:16:28.158Z,71.32
2022-12-01T04:18:56.102Z,69.57
2022-12-01T04:21:23.822Z,69.55
2022-12-01T04:24:00.369Z,72.97
2022-12-01T04:26:30.899Z,66.13
2022-12-01T04:29:00.336Z,69.25
2022-12-01T04:31:30.500Z,70.60
2022-12-01T04:33:58.847Z,73.63
2022-12-01T04:36:26.998Z,69.93
2022-12-01T04:38:54.751Z,73.93
2022-12-01T04:41:22.440Z,78.13
2022-12-01T04:43:50.065Z,77.78
2022-12-01T04:46:18.153Z,70.35
2022-12-01T04:48:45.741Z,88.05
2022-12-01T04:51:13.224Z,78.55
2022-12-01T04:53:45.678Z,83.30
2022-12-01T04:56:13.305Z,74.70
2022-12-01T04:58:45.519Z,87.22
2022-12-01T05:01:14.351Z,78.97
2022-12-01T05:03:43.299Z,84.60
2022-12-01T05:06:12.382Z,85.15
2022-12-01T05:08:40.071Z,82.80
2022-12-01T05:11:08.586Z,84.63
2022-12-01T05:13:42.814Z,94.07
2022-12-01T05:16:12.580Z,91.22
2022-12-01T05:18:41.155Z,97.47
2022-12-01T05:21:09.747Z,81.95
2022-12-01T05:23:38.195Z,86.15
2022-12-01T05:26:07.600Z,87.20
2022-12-01T05:28:35.550Z,78.43
2022-12-01T05:31:04.632Z,85.95
2022-12-01T05:33:33.333Z,86.53
2022-12-01T05:36:04.087Z,86.22
2022-12-01T05:38:33.748Z,90.57
2022-12-01T05:41:02.030Z,85.73
2022-12-01T05:43:29.961Z,95.95
2022-12-01T05:45:58.074Z,90.50
2022-12-01T05:48:25.853Z,91.57
2022-12-01T05:50:54.026Z,86.97
2022-12-01T05:53:21.972Z,96.47
2022-12-01T05:55:53.742Z,92.03
2022-12-01T05:58:22.115Z,82.68
2022-12-01T06:00:49.783Z,95.53
2022-12-01T06:03:17.432Z,88.57
2022-12-01T06:05:46.139Z,90.03
2022-12-01T06:08:16.867Z,82.53
2022-12-01T06:10:44.792Z,84.53
2022-12-01T06:13:12.671Z,92.45
2022-12-01T06:15:42.522Z,88.50
2022-12-01T06:18:10.359Z,83.65
2022-12-01T06:20:38.541Z,83.75
2022-12-01T06:23:06.250Z,89.20
2022-12-01T06:25:34.409Z,85.80
2022-12-01T06:28:03.569Z,82.65
2022-12-01T06:30:33.296Z,80.20
2022-12-01T06:33:00.848Z,85.50
2022-12-01T06:35:33.182Z,86.95
2022-12-01T06:38:04.919Z,80.10
2022-12-01T06:40:33.474Z,78.43
2022-12-01T06:43:05.423Z,81.68
2022-12-01T06:45:33.650Z,78.03
2022-12-01T06:48:03.778Z,79.40
2022-12-01T06:50:32.130Z,82.25
2022-12-01T06:52:59.732Z,81.22
2022-12-01T06:55:27.517Z,81.05
2022-12-01T06:57:55.617Z,77.45
2022-12-01T07:00:23.564Z,81.90
2022-12-01T07:02:52.465Z,81.05
2022-12-01T07:05:20.008Z,79.20
2022-12-01T07:07:47.718Z,74.70
2022-12-01T07:10:15.328Z,77.55
2022-12-01T07:12:42.992Z,76.32
2022-12-01T07:15:10.886Z,79.43
2022-12-01T07:17:38.607Z,78.43
2022-12-01T07:20:06.469Z,77.70
2022-12-01T07:22:36.370Z,71.47
2022-12-01T07:25:04.344Z,75.13
2022-12-01T07:27:33.833Z,74.03
2022-12-01T07:30:01.897Z,76.85
2022-12-01T07:32:31.553Z,84.85
2022-12-01T07:35:00.000Z,87.70
2022-12-01T07:37:27.497Z,81.13
2022-12-01T07:39:55.259Z,89.50
2022-12-01T07:42:22.724Z,85.20
2022-12-01T07:44:50.551Z,92.20
2022-12-01T07:47:18.497Z,89.68
2022-12-01T07:49:46.537Z,101.47
2022-12-01T07:52:14.383Z,92.90
2022-12-01T07:54:42.320Z,107.97
2022-12-01T07:57:10.266Z,93.38
2022-12-01T07:59:37.917Z,95.28
2022-12-01T08:02:05.986Z,93.45
2022-12-01T08:04:34.460Z,101.47
2022-12-01T08:07:05.410Z,93.60
2022-12-01T08:09:37.597Z,93.47
2022-12-01T08:12:06.552Z,95.50
2022-12-01T08:14:34.339Z,96.43
2022-12-01T08:17:02.659Z,103.65
2022-12-01T08:19:30.365Z,98.78
2022-12-01T08:21:59.471Z,109.80
2022-12-01T08:24:27.104Z,108.97
2022-12-01T08:26:54.604Z,101.35
2022-12-01T08:29:22.290Z,109.95
2022-12-01T08:31:50.144Z,114.28
2022-12-01T08:34:17.768Z,108.65
2022-12-01T08:36:45.333Z,99.85
2022-12-01T08:39:13.092Z,103.57
2022-12-01T08:41:41.333Z,114.72
2022-12-01T08:44:11.374Z,102.78
2022-12-01T08:46:39.263Z,102.93
2022-12-01T08:49:07.323Z,106.65
2022-12-01T08:51:36.474Z,98.30
2022-12-01T08:54:04.745Z,94.63
2022-12-01T08:56:36.436Z,101.40
2022-12-01T08:59:05.296Z,101.03
2022-12-01T09:01:35.202Z,95.28
2022-12-01T09:04:10.343Z,96.78
2022-12-01T09:06:43.153Z,102.47
2022-12-01T09:09:11.908Z,102.55
2022-12-01T09:11:41.688Z,91.30
2022-12-01T09:14:09.574Z,95.45
2022-12-01T09:16:37.736Z,96.22
2022-12-01T09:19:05.346Z,98.05
2022-12-01T09:21:37.107Z,93.22
2022-12-01T09:24:05.936Z,88.15
2022-12-01T09:26:35.715Z,101.35
2022-12-01T09:29:07.601Z,84.97
2022-12-01T09:31:35.704Z,94.65
2022-12-01T09:34:04.873Z,86.43
2022-12-01T09:36:33.255Z,85.20
2022-12-01T09:39:02.009Z,92.50
2022-12-01T09:41:38.839Z,96.15
2022-12-01T09:44:30.427Z,92.72
2022-12-01T09:47:00.898Z,92.60
2022-12-01T09:49:46.793Z,96.38
2022-12-01T09:52:16.332Z,97.43
2022-12-01T09:54:43.894Z,99.35
2022-12-01T09:57:20.003Z,91.15
2022-12-01T09:59:48.041Z,91.43
2022-12-01T10:02:26.726Z,84.57
2022-12-01T10:04:57.846Z,92.32
2022-12-01T10:07:28.059Z,89.72
2022-12-01T10:09:58.626Z,78.55
2022-12-01T10:12:30.633Z,82.90
2022-12-01T10:15:07.484Z,85.72
2022-12-01T10:17:53.921Z,90.75
2022-12-01T10:20:39.748Z,90.70
2022-12-01T10:23:25.950Z,95.32
2022-12-01T10:26:00.888Z,85.65
2022-12-01T10:28:39.083Z,85.38
2022-12-01T10:31:17.717Z,80.35
2022-12-01T10:34:05.692Z,85.10
2022-12-01T10:36:37.074Z,79.00
2022-12-01T10:39:06.864Z,81.07
2022-12-01T10:41:35.874Z,86.07
2022-12-01T10:44:05.647Z,75.63
2022-12-01T10:46:49.747Z,70.03
2022-12-01T10:49:18.545Z,82.78
2022-12-01T10:51:49.132Z,78.68
2022-12-01T10:56:45.799Z,76.10
2022-12-01T10:59:29.181Z,76.78
2022-12-01T11:02:01.015Z,65.13
2022-12-01T11:04:33.199Z,74.85
2022-12-01T11:07:01.616Z,77.40
2022-12-01T11:09:29.954Z,70.03
2022-12-01T11:11:59.052Z,75.35
2022-12-01T11:14:45.561Z,73.85
2022-12-01T11:17:27.894Z,76.03
2022-12-01T11:19:55.657Z,76.85
2022-12-01T11:22:35.362Z,81.65
2022-12-01T11:25:04.219Z,75.40
2022-12-01T11:27:35.996Z,76.97
2022-12-01T11:30:08.206Z,71.05
2022-12-01T11:32:39.823Z,79.90
2022-12-01T11:35:17.052Z,80.30
2022-12-01T11:37:54.847Z,65.45
2022-12-01T11:40:31.925Z,71.28
2022-12-01T11:43:04.256Z,82.57
2022-12-01T11:45:39.594Z,76.63
2022-12-01T11:48:15.444Z,72.45
2022-12-01T11:50:44.088Z,76.82
2022-12-01T11:53:30.354Z,65.63
2022-12-01T11:56:16.577Z,80.80
2022-12-01T11:58:45.067Z,69.80
2022-12-01T12:01:33.277Z,74.57
2022-12-01T12:04:22.816Z,77.35
2022-12-01T12:06:53.391Z,75.38
2022-12-01T12:11:56.383Z,61.17
2022-12-01T12:14:43.262Z,63.78
2022-12-01T12:17:21.771Z,60.78
2022-12-01T12:20:09.633Z,58.90
2022-12-01T12:22:55.687Z,60.70
2022-12-01T12:25:23.747Z,61.13
2022-12-01T12:28:06.769Z,62.45
2022-12-01T12:30:49.177Z,58.55
2022-12-01T12:33:16.997Z,62.13
2022-12-01T12:35:47.328Z,63.50
2022-12-01T12:38:15.507Z,58.72
2022-12-01T12:40:43.687Z,62.05
2022-12-01T12:43:34.506Z,59.42
2022-12-01T12:46:14.420Z,57.00
2022-12-01T12:49:12.127Z,59.77
2022-12-01T12:51:48.557Z,55.40
2022-12-01T12:56:46.194Z,56.33
2022-12-01T12:59:31.737Z,57.38
2022-12-01T13:02:09.796Z,58.20
2022-12-01T13:04:43.424Z,54.72
2022-12-01T13:07:17.137Z,60.53
2022-12-01T13:09:46.866Z,51.17
2022-12-01T13:12:24.041Z,49.55
2022-12-01T13:15:07.055Z,49.13
2022-12-01T13:17:37.457Z,48.17
2022-12-01T13:20:13.657Z,48.42
2022-12-01T13:22:41.469Z,47.40
2022-12-01T13:25:09.343Z,44.28
2022-12-01T13:27:38.696Z,47.85
2022-12-01T13:30:07.035Z,50.85
2022-12-01T13:32:36.589Z,50.13
2022-12-01T13:35:06.913Z,48.58
2022-12-01T13:37:35.408Z,57.70
2022-12-01T13:40:21.188Z,58.40
2022-12-01T13:43:12.690Z,61.10
2022-12-01T13:45:41.269Z,62.30
2022-12-01T13:48:27.281Z,56.40
2022-12-01T13:50:55.076Z,64.10
2022-12-01T13:53:26.303Z,63.42
2022-12-01T13:56:25.182Z,60.70
2022-12-01T13:58:54.341Z,67.95
2022-12-01T14:01:22.658Z,62.20
2022-12-01T14:04:03.858Z,62.92
2022-12-01T14:06:46.445Z,66.25
2022-12-01T14:09:17.886Z,62.95
2022-12-01T14:11:57.615Z,62.33
2022-12-01T14:14:26.626Z,57.58
2022-12-01T14:16:55.477Z,58.10
2022-12-01T14:19:31.807Z,61.55
2022-12-01T14:22:00.833Z,64.28
2022-12-01T14:24:34.759Z,65.68
2022-12-01T14:27:03.470Z,61.53
2022-12-01T14:29:43.501Z,70.00
2022-12-01T14:32:11.070Z,73.15
2022-12-01T14:34:40.136Z,59.03
2022-12-01T14:37:08.215Z,65.35
2022-12-01T14:39:44.211Z,69.07
2022-12-01T14:42:11.806Z,65.72
2022-12-01T14:44:45.177Z,68.07
2022-12-01T14:47:12.961Z,66.40
2022-12-01T14:49:44.004Z,62.50
2022-12-01T14:52:16.124Z,67.65
2022-12-01T14:54:44.805Z,64.68
2022-12-01T14:57:33.339Z,64.82
2022-12-01T15:00:05.322Z,64.50
2022-12-01T15:02:34.244Z,59.60
2022-12-01T15:05:10.453Z,62.88
2022-12-01T15:07:42.956Z,68.85
2022-12-01T15:10:18.096Z,67.00
2022-12-01T15:12:47.037Z,68.93
2022-12-01T15:15:18.775Z,70.78
2022-12-01T15:17:52.169Z,74.88
2022-12-01T15:20:36.645Z,73.25
2022-12-01T15:23:14.250Z,68.85
2022-12-01T15:25:53.597Z,76.00
2022-12-01T15:28:23.225Z,73.93
2022-12-01T15:30:51.946Z,67.17
2022-12-01T15:33:31.679Z,73.18
2022-12-01T15:36:04.885Z,70.78
2022-12-01T15:38:34.299Z,69.00
2022-12-01T15:41:28.987Z,68.05
2022-12-01T15:43:57.982Z,68.93
2022-12-01T15:46:30.314Z,73.07
2022-12-01T15:49:17.670Z,71.80
2022-12-01T15:51:45.904Z,71.03
2022-12-01T15:54:21.757Z,75.45
2022-12-01T15:56:57.394Z,85.60
2022-12-01T15:59:32.426Z,76.55
2022-12-01T16:02:02.404Z,70.90
2022-12-01T16:04:33.203Z,74.03
2022-12-01T16:07:07.909Z,77.57
2022-12-01T16:09:40.526Z,73.47
2022-12-01T16:12:08.340Z,71.97
2022-12-01T16:14:36.597Z,81.70
2022-12-01T16:17:05.764Z,78.20
2022-12-01T16:19:36.381Z,77.32
2022-12-01T16:22:22.569Z,75.05
2022-12-01T16:24:54.631Z,70.93
2022-12-01T16:27:25.561Z,89.50
2022-12-01T16:29:58.569Z,80.63
2022-12-01T16:32:35.120Z,78.18
2022-12-01T16:35:04.584Z,75.88
2022-12-01T16:37:33.710Z,82.00
2022-12-01T16:40:12.528Z,76.68
2022-12-01T16:42:40.174Z,100.28
2022-12-01T16:45:08.154Z,84.03
2022-12-01T16:47:35.822Z,78.78
2022-12-01T16:50:04.529Z,85.38
2022-12-01T16:52:44.339Z,84.88
2022-12-01T16:55:24.880Z,81.13
2022-12-01T16:57:52.547Z,85.15
2022-12-01T17:00:20.625Z,86.65
2022-12-01T17:02:48.899Z,84.93
2022-12-01T17:05:17.288Z,79.28
2022-12-01T17:07:45.095Z,82.55
2022-12-01T17:10:13.990Z,78.55
2022-12-01T17:12:41.475Z,81.15
2022-12-01T17:15:10.189Z,86.85
2022-12-01T17:17:38.079Z,86.95
2022-12-01T17:20:06.249Z,87.25
2022-12-01T17:22:37.097Z,81.22
2022-12-01T17:25:05.676Z,76.57
2022-12-01T17:27:34.674Z,83.38
2022-12-01T17:30:03.481Z,79.30
2022-12-01T17:32:33.753Z,81.80
2022-12-01T17:35:02.075Z,81.25
2022-12-01T17:37:29.891Z,88.20
2022-12-01T17:39:58.082Z,83.28
2022-12-01T17:42:25.639Z,92.35
2022-12-01T17:44:59.997Z,87.30
2022-12-01T17:47:27.818Z,84.03
2022-12-01T17:49:56.612Z,74.78
2022-12-01T17:52:28.390Z,82.18
2022-12-01T17:54:56.633Z,84.47
2022-12-01T17:57:25.297Z,90.28
2022-12-01T17:59:55.492Z,82.10
2022-12-01T18:02:23.282Z,86.30
2022-12-01T18:04:51.490Z,79.25
2022-12-01T18:07:19.657Z,84.70
2022-12-01T18:09:52.320Z,82.95
2022-12-01T18:12:19.882Z,78.93
2022-12-01T18:14:49.027Z,89.88
2022-12-01T18:17:17.315Z,82.95
2022-12-01T18:19:45.315Z,80.90
2022-12-01T18:22:12.977Z,83.82
2022-12-01T18:24:40.965Z,88.07
2022-12-01T18:27:08.567Z,85.15
2022-12-01T18:29:36.646Z,83.10
2022-12-01T18:32:04.873Z,84.35
2022-12-01T18:34:34.851Z,88.45
2022-12-01T18:37:06.317Z,80.93
2022-12-01T18:39:34.912Z,82.32
2022-12-01T18:42:03.558Z,85.93
2022-12-01T18:44:31.845Z,82.85
2022-12-01T18:47:03.116Z,88.50
2022-12-01T18:49:30.963Z,83.97
2022-12-01T18:52:00.653Z,83.43
2022-12-01T18:54:28.376Z,77.45
2022-12-01T18:56:59.183Z,86.60
2022-12-01T18:59:27.211Z,81.90
2022-12-01T19:01:55.493Z,82.85
2022-12-01T19:04:23.151Z,77.80
2022-12-01T19:06:51.523Z,78.45
2022-12-01T19:09:19.186Z,77.30
2022-12-01T19:11:47.025Z,80.32
2022-12-01T19:14:16.928Z,75.72
2022-12-01T19:16:45.954Z,74.15
2022-12-01T19:19:13.797Z,79.72
2022-12-01T19:21:41.767Z,79.82
2022-12-01T19:24:09.703Z,81.55
2022-12-01T19:26:37.568Z,85.63
2022-12-01T19:29:06.335Z,85.28
2022-12-01T19:31:35.496Z,90.30
2022-12-01T19:34:05.327Z,87.55
2022-12-01T19:36:33.703Z,90.70
2022-12-01T19:39:04.461Z,96.20
2022-12-01T19:41:37.375Z,89.20
2022-12-01T19:44:05.747Z,95.88
2022-12-01T19:46:34.643Z,99.45
2022-12-01T19:49:03.448Z,98.90
2022-12-01T19:51:35.829Z,98.18
2022-12-01T19:54:05.254Z,91.68
2022-12-01T19:56:33.297Z,101.03
2022-12-01T19:59:03.357Z,104.88
2022-12-01T20:03:59.843Z,111.53
2022-12-01T20:06:28.684Z,114.55
2022-12-01T20:08:58.566Z,108.15
2022-12-01T20:11:26.967Z,117.53
2022-12-01T20:13:59.920Z,112.60
2022-12-01T20:16:28.396Z,111.50
2022-12-01T20:18:56.323Z,119.95
2022-12-01T20:21:29.034Z,113.30
2022-12-01T20:23:58.307Z,120.63
2022-12-01T20:26:30.427Z,116.10
2022-12-01T20:29:06.628Z,115.88
2022-12-01T20:31:35.012Z,117.57
2022-12-01T20:34:04.309Z,127.55
2022-12-01T20:36:32.307Z,130.68
2022-12-01T20:39:00.464Z,121.35
2022-12-01T20:41:28.751Z,123.78
2022-12-01T20:43:56.365Z,120.68
2022-12-01T20:46:24.439Z,119.43
2022-12-01T20:48:51.994Z,126.00
2022-12-01T20:51:19.633Z,127.53
2022-12-01T20:54:12.355Z,114.53
2022-12-01T20:56:35.382Z,122.65
2022-12-01T20:59:03.138Z,128.60
2022-12-01T21:01:30.975Z,123.43
2022-12-01T21:03:59.628Z,123.28
2022-12-01T21:06:29.207Z,126.72
2022-12-01T21:08:58.958Z,124.60
2022-12-01T21:11:50.034Z,134.07
2022-12-01T21:14:25.150Z,117.50
2022-12-01T21:16:54.045Z,119.38
2022-12-01T21:19:25.385Z,132.88
2022-12-01T21:21:56.125Z,130.10
2022-12-01T21:24:31.964Z,141.30
2022-12-01T21:27:04.561Z,128.43
2022-12-01T21:29:40.327Z,121.65
2022-12-01T21:32:12.570Z,128.15
2022-12-01T21:34:43.294Z,132.85
2022-12-01T21:37:15.358Z,132.85
2022-12-01T21:39:44.266Z,134.60
2022-12-01T21:42:17.833Z,138.45
2022-12-01T21:44:45.797Z,132.77
2022-12-01T21:47:18.836Z,130.82
2022-12-01T21:49:48.500Z,123.78
2022-12-01T21:52:19.634Z,123.73
2022-12-01T21:54:51.097Z,134.25
2022-12-01T21:57:42.993Z,124.80
2022-12-01T22:00:37.149Z,129.65
2022-12-01T22:03:10.915Z,124.35
2022-12-01T22:05:55.867Z,128.07
2022-12-01T22:08:33.322Z,126.43
2022-12-01T22:11:05.225Z,137.90
2022-12-01T22:13:54.265Z,131.63
2022-12-01T22:16:23.181Z,127.50
2022-12-01T22:18:55.978Z,134.55
2022-12-01T22:21:23.649Z,127.72
2022-12-01T22:23:58.180Z,129.50
2022-12-01T22:26:26.433Z,126.82
2022-12-01T22:28:57.603Z,122.55
2022-12-01T22:31:26.988Z,133.57
2022-12-01T22:34:03.777Z,135.07
2022-12-01T22:36:33.362Z,132.70
2022-12-01T22:39:04.042Z,139.67
2022-12-01T22:41:33.060Z,150.73
2022-12-01T22:44:02.317Z,147.85
2022-12-01T22:46:30.556Z,145.82
2022-12-01T22:49:07.880Z,146.73
2022-12-01T22:51:42.093Z,138.95
2022-12-01T22:54:12.734Z,151.68
2022-12-01T22:56:41.307Z,139.00
2022-12-01T22:59:44.404Z,141.18
2022-12-01T23:02:21.397Z,138.30
2022-12-01T23:04:50.590Z,137.10
2022-12-01T23:07:18.581Z,134.15
2022-12-01T23:09:46.476Z,141.23
2022-12-01T23:12:14.211Z,151.43
2022-12-01T23:15:02.139Z,146.00
2022-12-01T23:17:30.913Z,144.02
2022-12-01T23:20:04.139Z,163.87
2022-12-01T23:22:32.240Z,151.75
2022-12-01T23:25:00.900Z,163.88
2022-12-01T23:27:29.684Z,170.13
2022-12-01T23:29:57.611Z,153.10
2022-12-01T23:32:26.693Z,156.32
2022-12-01T23:34:58.581Z,154.95
2022-12-01T23:37:38.403Z,149.27
2022-12-01T23:40:16.824Z,161.60
2022-12-01T23:42:44.558Z,148.95
2022-12-01T23:45:30.234Z,156.85
2022-12-01T23:47:57.900Z,146.68
2022-12-01T23:50:30.390Z,142.10
2022-12-01T23:52:58.367Z,145.75
2022-12-01T23:55:30.630Z,138.65
2022-12-01T23:57:59.417Z,139.10
